Time;durP1;ratioP1;P1;durP2;ratioP2;P2;SDS_P1;SDS_P2;PMS_P1;PMS_P2;Temp;Humidity;BMP_temperature;BMP_pressure;BME280_temperature;BME280_humidity;BME280_pressure;Samples;Min_cycle;Max_cycle;Signal;HPM_P1;HPM_P2
2022/10/29 00:07:35;;;;;;;1999.90;999.90;;;16.20;99.90;;;;;;6662630;89;20210;-79
2022/10/29 00:17:35;;;;;;;1999.90;999.90;;;16.50;99.90;;;;;;6654777;89;20205;-80
2022/10/29 00:27:36;;;;;;;1999.90;999.90;;;16.40;99.90;;;;;;6660732;89;20757;-81
2022/10/29 00:37:36;;;;;;;1999.90;999.90;;;16.50;99.90;;;;;;6666285;89;20219;-80
2022/10/29 00:47:38;;;;;;;1999.90;999.90;;;16.20;99.90;;;;;;6657047;89;20180;-81
2022/10/29 00:57:45;;;;;;;1999.90;999.90;;;16.00;99.90;;;;;;6665954;89;20211;-80
2022/10/29 01:07:46;;;;;;;1999.90;999.90;;;16.00;99.90;;;;;;6661461;88;20177;-79
2022/10/29 01:18:29;;;;;;;1999.90;999.90;;;15.90;99.90;;;;;;6659815;89;20283;-79
2022/10/29 01:28:37;;;;;;;1999.90;999.90;;;15.90;99.90;;;;;;6664665;89;20534;-80
2022/10/29 01:38:47;;;;;;;1999.90;999.90;;;15.90;99.90;;;;;;6664964;89;20218;-80
2022/10/29 01:48:53;;;;;;;1999.90;999.90;;;16.00;99.90;;;;;;6663662;89;20668;-80
2022/10/29 01:58:57;;;;;;;1999.90;999.90;;;16.00;99.90;;;;;;6664676;89;20221;-80
2022/10/29 02:09:03;;;;;;;1999.90;999.90;;;15.80;99.90;;;;;;6665840;89;20212;-79
2022/10/29 02:19:04;;;;;;;1999.90;999.90;;;15.60;99.90;;;;;;6666693;88;20225;-80
2022/10/29 02:29:05;;;;;;;1999.90;999.90;;;15.40;99.90;;;;;;6720608;88;20195;-79
2022/10/29 02:39:05;;;;;;;1999.90;999.90;;;15.20;99.90;;;;;;6668177;88;20278;-79
2022/10/29 02:49:06;;;;;;;1999.90;999.90;;;15.40;99.90;;;;;;6669969;89;20173;-80
2022/10/29 02:59:07;;;;;;;1999.90;999.90;;;15.60;99.90;;;;;;6665098;89;20203;-79
2022/10/29 03:09:08;;;;;;;1999.90;999.90;;;15.80;99.90;;;;;;6659561;89;20215;-81
2022/10/29 03:19:08;;;;;;;1999.90;999.90;;;15.70;99.90;;;;;;6670317;89;20256;-79
2022/10/29 03:29:09;;;;;;;1999.90;999.90;;;15.30;99.90;;;;;;6656451;89;20183;-80
2022/10/29 03:39:09;;;;;;;1999.90;999.90;;;15.20;99.90;;;;;;6674534;89;20246;-81
2022/10/29 03:49:10;;;;;;;1999.90;999.90;;;15.00;99.90;;;;;;6665887;89;20209;-81
2022/10/29 03:59:10;;;;;;;1999.90;999.90;;;14.90;99.90;;;;;;6643896;89;20193;-80
2022/10/29 04:09:11;;;;;;;1999.90;999.90;;;14.90;99.90;;;;;;6663088;89;20208;-80
2022/10/29 04:19:12;;;;;;;1999.90;999.90;;;14.90;99.90;;;;;;6661196;89;20229;-80
2022/10/29 04:29:12;;;;;;;1999.90;999.90;;;15.00;99.90;;;;;;6661018;89;20267;-81
2022/10/29 04:39:13;;;;;;;1999.90;999.90;;;15.10;99.90;;;;;;6665381;89;20189;-81
2022/10/29 04:49:13;;;;;;;1999.90;999.90;;;15.20;99.90;;;;;;6675459;89;20231;-80
2022/10/29 04:59:14;;;;;;;1999.90;999.90;;;15.00;99.90;;;;;;6671093;89;20209;-81
2022/10/29 05:09:14;;;;;;;1999.90;999.90;;;14.90;99.90;;;;;;6671096;89;20199;-80
2022/10/29 05:29:18;;;;;;;1999.90;999.90;;;15.20;99.90;;;;;;6727327;88;20636;-78
2022/10/29 05:39:19;;;;;;;1999.90;999.90;;;15.30;99.90;;;;;;6741999;88;20255;-78
2022/10/29 05:49:19;;;;;;;1999.90;999.90;;;15.50;99.90;;;;;;6751433;88;20752;-79
2022/10/29 05:59:20;;;;;;;1999.90;999.90;;;15.60;99.90;;;;;;6739573;88;20723;-79
2022/10/29 06:09:20;;;;;;;1999.90;999.90;;;15.80;99.90;;;;;;6738781;88;20230;-79
2022/10/29 06:19:21;;;;;;;1999.90;999.90;;;16.10;99.90;;;;;;6738476;88;20946;-79
2022/10/29 06:29:21;;;;;;;1999.90;999.90;;;16.20;99.90;;;;;;6746710;88;20715;-78
2022/10/29 06:39:22;;;;;;;1999.90;999.90;;;16.20;99.90;;;;;;6739801;88;20660;-79
2022/10/29 06:49:23;;;;;;;1999.90;999.90;;;16.10;99.90;;;;;;6733452;88;20222;-79
2022/10/29 06:59:23;;;;;;;1999.90;999.90;;;16.10;99.90;;;;;;6747876;88;20779;-79
2022/10/29 07:09:24;;;;;;;1999.90;999.90;;;16.10;99.90;;;;;;6745975;88;20251;-80
2022/10/29 07:19:34;;;;;;;1999.90;999.90;;;16.30;99.90;;;;;;6745116;88;20205;-79
2022/10/29 07:29:34;;;;;;;1999.90;999.90;;;16.50;99.90;;;;;;6741532;88;20210;-79
2022/10/29 07:39:35;;;;;;;1999.90;999.90;;;16.70;99.90;;;;;;6747036;88;20189;-79
2022/10/29 07:49:35;;;;;;;1999.90;999.90;;;16.90;99.90;;;;;;6760572;88;20232;-80
2022/10/29 07:59:36;;;;;;;1999.90;999.90;;;17.00;99.90;;;;;;6746419;88;20197;-81
2022/10/29 08:09:36;;;;;;;1999.90;999.90;;;17.30;99.90;;;;;;6746521;88;20563;-79
2022/10/29 08:19:37;;;;;;;1999.90;999.90;;;17.50;99.90;;;;;;6736633;88;20191;-80
2022/10/29 08:29:37;;;;;;;1999.90;999.90;;;17.50;99.90;;;;;;6738957;88;20185;-80
2022/10/29 08:39:38;;;;;;;1999.90;999.90;;;17.50;99.90;;;;;;6748370;88;20711;-80
2022/10/29 08:50:08;;;;;;;1999.90;999.90;;;17.70;99.90;;;;;;6744866;88;20281;-80
2022/10/29 09:00:21;;;;;;;1999.90;999.90;;;17.90;99.90;;;;;;6737932;88;20704;-79
2022/10/29 09:10:55;;;;;;;1999.90;999.90;;;18.30;99.90;;;;;;6738041;88;20324;-79
2022/10/29 09:21:34;;;;;;;1999.90;999.90;;;18.50;99.90;;;;;;6740459;88;20744;-79
2022/10/29 09:31:41;;;;;;;1999.90;999.90;;;18.60;99.90;;;;;;6740550;88;20189;-80
2022/10/29 09:41:43;;;;;;;1999.90;999.90;;;18.90;99.90;;;;;;6742714;88;20280;-77
2022/10/29 09:51:55;;;;;;;1999.90;999.90;;;19.10;99.90;;;;;;6747975;88;20232;-79
2022/10/29 10:01:58;;;;;;;1999.90;999.90;;;18.90;99.90;;;;;;6744527;88;20214;-78
2022/10/29 10:11:58;;;;;;;1999.90;999.90;;;19.30;99.90;;;;;;6736393;88;20210;-78
2022/10/29 10:22:04;;;;;;;1999.90;999.90;;;19.30;99.90;;;;;;6739692;88;20649;-79
2022/10/29 10:32:04;;;;;;;1999.90;999.90;;;19.50;99.90;;;;;;6746972;88;20185;-81
2022/10/29 10:42:22;;;;;;;1999.90;999.90;;;19.70;99.90;;;;;;6734597;88;20719;-80
2022/10/29 10:52:30;;;;;;;1999.90;999.90;;;19.90;99.90;;;;;;6729700;88;20354;-78
2022/10/29 11:03:01;;;;;;;1999.90;999.90;;;20.00;99.90;;;;;;6737517;88;20176;-78
2022/10/29 11:13:09;;;;;;;1999.90;999.90;;;20.00;99.90;;;;;;6737883;88;20185;-82
2022/10/29 11:23:49;;;;;;;1999.90;999.90;;;20.10;99.90;;;;;;6709893;78;20200;-77
2022/10/29 11:34:17;;;;;;;1999.90;999.90;;;19.90;99.90;;;;;;6673588;88;20205;-80
2022/10/29 11:44:20;;;;;;;1999.90;999.90;;;20.20;99.90;;;;;;6669339;89;20197;-79
2022/10/29 11:54:39;;;;;;;1999.90;999.90;;;20.30;99.90;;;;;;6669357;89;20195;-80
2022/10/29 12:05:11;;;;;;;1999.90;999.90;;;20.60;99.90;;;;;;6681396;89;20244;-79
2022/10/29 12:15:25;;;;;;;1999.90;999.90;;;20.90;99.90;;;;;;6671456;88;20632;-81
2022/10/29 12:26:00;;;;;;;1999.90;999.90;;;21.10;99.90;;;;;;6680385;88;20217;-81
2022/10/29 12:36:16;;;;;;;1999.90;999.90;;;21.50;99.90;;;;;;6685737;89;20781;-82
2022/10/29 12:46:36;;;;;;;1999.90;999.90;;;21.30;99.90;;;;;;6689953;89;20199;-80
2022/10/29 12:57:29;;;;;;;1999.90;999.90;;;21.20;99.90;;;;;;6689019;89;20203;-80
2022/10/29 13:07:43;;;;;;;1999.90;999.90;;;21.40;99.90;;;;;;6672816;89;20222;-80
2022/10/29 13:17:51;;;;;;;1999.90;999.90;;;21.30;99.90;;;;;;6665117;88;20180;-80
2022/10/29 13:27:52;;;;;;;1999.90;999.90;;;21.50;99.90;;;;;;6676802;89;20630;-80
2022/10/29 13:37:53;;;;;;;1999.90;999.90;;;21.50;99.90;;;;;;6681648;89;20183;-80
2022/10/29 13:48:05;;;;;;;1999.90;999.90;;;21.60;99.90;;;;;;6669039;88;20187;-80
2022/10/29 13:58:13;;;;;;;1999.90;999.90;;;21.90;99.90;;;;;;6658815;89;20188;-80
2022/10/29 14:08:33;;;;;;;1999.90;999.90;;;22.10;99.90;;;;;;6700973;88;20185;-80
2022/10/29 14:18:43;;;;;;;1999.90;999.90;;;22.00;99.90;;;;;;6747320;88;20203;-79
2022/10/29 14:28:43;;;;;;;1999.90;999.90;;;21.80;99.90;;;;;;6661821;88;20197;-81
2022/10/29 14:38:56;;;;;;;1999.90;999.90;;;21.70;99.90;;;;;;6661330;89;20226;-80
2022/10/29 14:49:02;;;;;;;1999.90;999.90;;;21.40;99.90;;;;;;6661299;88;20197;-80
2022/10/29 14:59:12;;;;;;;1999.90;999.90;;;21.20;99.90;;;;;;6674881;89;20829;-82
2022/10/29 15:09:19;;;;;;;1999.90;999.90;;;20.90;99.90;;;;;;6677165;89;20182;-80
2022/10/29 15:19:21;;;;;;;1999.90;999.90;;;20.80;99.90;;;;;;6673268;89;20198;-80
2022/10/29 15:29:25;;;;;;;1999.90;999.90;;;20.70;99.90;;;;;;6670691;89;20204;-79
2022/10/29 15:39:28;;;;;;;1999.90;999.90;;;20.60;99.90;;;;;;6676395;88;20207;-80
2022/10/29 15:49:29;;;;;;;1999.90;999.90;;;20.50;99.90;;;;;;6685729;88;20206;-80
2022/10/29 15:59:30;;;;;;;1999.90;999.90;;;20.30;99.90;;;;;;6731834;88;20195;-80
2022/10/29 16:09:30;;;;;;;1999.90;999.90;;;20.10;99.90;;;;;;6671600;89;20620;-80
2022/10/29 16:19:31;;;;;;;1999.90;999.90;;;20.00;99.90;;;;;;6670877;89;20491;-79
2022/10/29 16:40:15;;;;;;;1999.90;999.90;;;19.80;99.90;;;;;;6798742;76;20907;-80
2022/10/29 16:50:19;;;;;;;1999.90;999.90;;;19.80;99.90;;;;;;6751085;87;20191;-79
2022/10/29 17:00:20;;;;;;;1999.90;999.90;;;19.70;99.90;;;;;;6693229;87;20203;-81
2022/10/29 17:10:21;;;;;;;1999.90;999.90;;;19.40;99.90;;;;;;6745151;88;20188;-79
2022/10/29 17:30:25;;;;;;;1999.90;999.90;;;19.50;99.90;;;;;;6748755;88;20393;-78
2022/10/29 17:40:25;;;;;;;1999.90;999.90;;;19.30;99.90;;;;;;6735807;88;20254;-78
2022/10/29 17:50:26;;;;;;;1999.90;999.90;;;19.20;99.90;;;;;;6732222;88;20758;-78
2022/10/29 18:00:26;;;;;;;1999.90;999.90;;;19.30;99.90;;;;;;6732229;88;20190;-77
2022/10/29 18:10:27;;;;;;;1999.90;999.90;;;19.30;99.90;;;;;;6730914;88;20192;-79
2022/10/29 18:20:28;;;;;;;1999.90;999.90;;;19.40;99.90;;;;;;6749491;88;20193;-81
2022/10/29 18:30:28;;;;;;;1999.90;999.90;;;19.40;99.90;;;;;;6744743;88;20215;-80
2022/10/29 18:40:29;;;;;;;1999.90;999.90;;;19.50;99.90;;;;;;6737955;88;20637;-78
2022/10/29 18:50:31;;;;;;;1999.90;999.90;;;19.30;99.90;;;;;;6731432;88;20198;-79
2022/10/29 19:00:31;;;;;;;1999.90;999.90;;;19.30;99.90;;;;;;6727763;88;20260;-78
2022/10/29 19:10:40;;;;;;;1999.90;999.90;;;19.40;99.90;;;;;;6735785;88;20259;-78
2022/10/29 19:20:41;;;;;;;1999.90;999.90;;;19.30;99.90;;;;;;6737104;88;20207;-79
2022/10/29 19:30:41;;;;;;;1999.90;999.90;;;19.30;99.90;;;;;;6737504;88;20192;-78
2022/10/29 19:40:42;;;;;;;1999.90;999.90;;;19.50;99.90;;;;;;6748132;87;20189;-78
2022/10/29 19:50:42;;;;;;;1999.90;999.90;;;19.40;99.90;;;;;;6736485;88;20188;-78
2022/10/29 20:00:43;;;;;;;1999.90;999.90;;;19.20;99.90;;;;;;6737712;88;20206;-79
2022/10/29 20:10:43;;;;;;;1999.90;999.90;;;19.10;99.90;;;;;;6727046;88;20282;-79
2022/10/29 20:20:44;;;;;;;1999.90;999.90;;;19.10;99.90;;;;;;6729223;88;20296;-78
2022/10/29 20:30:45;;;;;;;1999.90;999.90;;;18.90;99.90;;;;;;6728177;88;20244;-78
2022/10/29 20:40:49;;;;;;;1999.90;999.90;;;19.00;99.90;;;;;;6735652;88;20639;-78
2022/10/29 20:50:50;;;;;;;1999.90;999.90;;;19.00;99.90;;;;;;6734398;88;20181;-79
2022/10/29 21:00:51;;;;;;;1999.90;999.90;;;19.00;99.90;;;;;;6734927;88;20209;-78
2022/10/29 21:11:00;;;;;;;1999.90;999.90;;;19.00;99.90;;;;;;6733664;88;20614;-79
2022/10/29 21:21:02;;;;;;;1999.90;999.90;;;18.60;99.90;;;;;;6737303;88;20190;-79
2022/10/29 21:31:03;;;;;;;1999.90;999.90;;;18.20;99.90;;;;;;6739797;88;20202;-79
2022/10/29 21:41:03;;;;;;;1999.90;999.90;;;17.90;99.90;;;;;;6737776;88;20189;-76
2022/10/29 21:51:10;;;;;;;1999.90;999.90;;;17.70;99.90;;;;;;6732693;88;20560;-79
2022/10/29 22:01:13;;;;;;;1999.90;999.90;;;17.50;99.90;;;;;;6730988;88;20188;-79
2022/10/29 22:11:14;;;;;;;1999.90;999.90;;;17.40;99.90;;;;;;6732689;88;20237;-80
2022/10/29 22:21:17;;;;;;;1999.90;999.90;;;17.30;99.90;;;;;;6744040;88;20293;-77
2022/10/29 22:31:20;;;;;;;1999.90;999.90;;;17.30;99.90;;;;;;6732266;88;20286;-77
2022/10/29 22:41:21;;;;;;;1999.90;999.90;;;17.30;99.90;;;;;;6735951;88;20176;-77
2022/10/29 22:51:24;;;;;;;1999.90;999.90;;;17.40;99.90;;;;;;6733294;88;20296;-77
2022/10/29 23:01:30;;;;;;;1999.90;999.90;;;17.30;99.90;;;;;;6739245;88;20208;-78
2022/10/29 23:11:33;;;;;;;1999.90;999.90;;;17.20;99.90;;;;;;6736133;88;20177;-77
2022/10/29 23:21:34;;;;;;;1999.90;999.90;;;17.20;99.90;;;;;;6729712;88;20625;-77
2022/10/29 23:31:35;;;;;;;1999.90;999.90;;;17.30;99.90;;;;;;6736572;88;20315;-77
2022/10/29 23:41:36;;;;;;;1999.90;999.90;;;17.20;99.90;;;;;;6744465;88;20273;-77
2022/10/29 23:51:36;;;;;;;1999.90;999.90;;;17.00;99.90;;;;;;6747050;88;20301;-77
